Aviation Digital Data Service (ADDS)

Output produced by METARs form (0255 UTC 26 October 2014)
found at http://aviationweather.gov/adds/metars/
 
KGNV 252320Z 2600/2624 00000KT P6SM SKC 
     FM261500 32005KT P6SM SKC